sensor_id;sensor_type;location;lat;lon;timestamp;pressure;altitude;pressure_sealevel;temperature;humidity
43691;BME280;29293;52.190;21.226;2023-08-17T00:07:35;100651.70;;;22.24;100.00
43691;BME280;29293;52.190;21.226;2023-08-17T00:22:42;100663.58;;;22.19;100.00
43691;BME280;29293;52.190;21.226;2023-08-17T00:37:49;100645.13;;;22.00;100.00
43691;BME280;29293;52.190;21.226;2023-08-17T00:52:57;100664.08;;;21.90;100.00
43691;BME280;29293;52.190;21.226;2023-08-17T01:08:05;100681.55;;;21.83;100.00
43691;BME280;29293;52.190;21.226;2023-08-17T01:23:11;100673.42;;;21.72;100.00
43691;BME280;29293;52.190;21.226;2023-08-17T01:38:21;100657.27;;;21.53;100.00
43691;BME280;29293;52.190;21.226;2023-08-17T01:53:28;100667.31;;;21.46;100.00
43691;BME280;29293;52.190;21.226;2023-08-17T02:08:37;100663.14;;;21.37;100.00
43691;BME280;29293;52.190;21.226;2023-08-17T02:23:44;100662.61;;;21.27;100.00
43691;BME280;29293;52.190;21.226;2023-08-17T02:38:51;100652.65;;;21.17;100.00
43691;BME280;29293;52.190;21.226;2023-08-17T02:53:58;100667.68;;;21.17;100.00
43691;BME280;29293;52.190;21.226;2023-08-17T03:09:05;100675.04;;;21.21;100.00
43691;BME280;29293;52.190;21.226;2023-08-17T03:24:12;100685.80;;;21.25;100.00
43691;BME280;29293;52.190;21.226;2023-08-17T03:39:19;100699.79;;;21.28;100.00
43691;BME280;29293;52.190;21.226;2023-08-17T03:54:26;100720.34;;;21.19;100.00
43691;BME280;29293;52.190;21.226;2023-08-17T04:09:32;100719.37;;;21.03;100.00
43691;BME280;29293;52.190;21.226;2023-08-17T04:24:40;100714.48;;;20.99;100.00
43691;BME280;29293;52.190;21.226;2023-08-17T04:39:47;100723.92;;;21.08;100.00
43691;BME280;29293;52.190;21.226;2023-08-17T04:54:53;100724.55;;;21.22;100.00
43691;BME280;29293;52.190;21.226;2023-08-17T05:10:01;100727.77;;;21.36;100.00
43691;BME280;29293;52.190;21.226;2023-08-17T05:25:09;100732.89;;;21.56;100.00
43691;BME280;29293;52.190;21.226;2023-08-17T05:40:16;100727.98;;;21.84;100.00
43691;BME280;29293;52.190;21.226;2023-08-17T05:55:23;100726.51;;;22.09;100.00
43691;BME280;29293;52.190;21.226;2023-08-17T06:10:30;100715.67;;;22.50;100.00
43691;BME280;29293;52.190;21.226;2023-08-17T06:25:38;100723.98;;;23.08;100.00
43691;BME280;29293;52.190;21.226;2023-08-17T06:40:46;100733.71;;;23.68;100.00
43691;BME280;29293;52.190;21.226;2023-08-17T06:55:53;100736.45;;;24.31;100.00
43691;BME280;29293;52.190;21.226;2023-08-17T07:11:00;100733.24;;;24.75;100.00
43691;BME280;29293;52.190;21.226;2023-08-17T07:26:06;100737.63;;;25.39;100.00
43691;BME280;29293;52.190;21.226;2023-08-17T07:41:13;100735.15;;;25.58;100.00
43691;BME280;29293;52.190;21.226;2023-08-17T07:56:21;100745.16;;;25.96;100.00
43691;BME280;29293;52.190;21.226;2023-08-17T08:11:28;100745.95;;;26.13;100.00
43691;BME280;29293;52.190;21.226;2023-08-17T08:26:36;100747.84;;;26.72;100.00
43691;BME280;29293;52.190;21.226;2023-08-17T08:41:43;100746.09;;;27.39;100.00
43691;BME280;29293;52.190;21.226;2023-08-17T08:57:01;100745.23;;;28.28;100.00
43691;BME280;29293;52.190;21.226;2023-08-17T09:12:12;100743.73;;;28.81;100.00
43691;BME280;29293;52.190;21.226;2023-08-17T09:27:20;100735.48;;;29.33;100.00
43691;BME280;29293;52.190;21.226;2023-08-17T09:42:27;100744.23;;;29.95;100.00
43691;BME280;29293;52.190;21.226;2023-08-17T09:57:34;100733.98;;;30.57;100.00
43691;BME280;29293;52.190;21.226;2023-08-17T10:12:49;100730.82;;;31.33;100.00
43691;BME280;29293;52.190;21.226;2023-08-17T10:27:57;100729.27;;;31.82;91.83
43691;BME280;29293;52.190;21.226;2023-08-17T10:43:10;100723.88;;;32.37;61.11
43691;BME280;29293;52.190;21.226;2023-08-17T10:58:18;100709.66;;;32.82;51.45
43691;BME280;29293;52.190;21.226;2023-08-17T11:13:28;100710.30;;;33.38;43.76
43691;BME280;29293;52.190;21.226;2023-08-17T11:28:38;100703.63;;;33.29;41.98
43691;BME280;29293;52.190;21.226;2023-08-17T11:43:46;100708.95;;;32.41;43.99
43691;BME280;29293;52.190;21.226;2023-08-17T11:58:53;100702.42;;;31.47;46.22
43691;BME280;29293;52.190;21.226;2023-08-17T12:14:07;100694.06;;;31.18;50.20
43691;BME280;29293;52.190;21.226;2023-08-17T12:29:15;100690.48;;;31.60;47.18
43691;BME280;29293;52.190;21.226;2023-08-17T12:44:22;100688.83;;;32.35;45.92
43691;BME280;29293;52.190;21.226;2023-08-17T12:59:28;100683.34;;;31.77;48.80
43691;BME280;29293;52.190;21.226;2023-08-17T13:14:35;100680.06;;;31.84;47.87
43691;BME280;29293;52.190;21.226;2023-08-17T13:29:42;100659.50;;;32.72;45.94
43691;BME280;29293;52.190;21.226;2023-08-17T13:44:49;100658.95;;;32.97;44.63
43691;BME280;29293;52.190;21.226;2023-08-17T13:59:55;100647.96;;;33.49;42.67
43691;BME280;29293;52.190;21.226;2023-08-17T14:15:03;100641.54;;;33.43;42.13
43691;BME280;29293;52.190;21.226;2023-08-17T14:30:10;100631.25;;;33.18;43.26
43691;BME280;29293;52.190;21.226;2023-08-17T14:45:17;100621.79;;;32.85;43.95
43691;BME280;29293;52.190;21.226;2023-08-17T15:00:24;100619.26;;;32.68;43.82
43691;BME280;29293;52.190;21.226;2023-08-17T15:15:31;100621.65;;;32.50;43.44
43691;BME280;29293;52.190;21.226;2023-08-17T15:30:38;100618.30;;;32.13;44.80
43691;BME280;29293;52.190;21.226;2023-08-17T15:45:44;100604.98;;;31.78;46.27
43691;BME280;29293;52.190;21.226;2023-08-17T16:00:51;100604.46;;;31.47;46.04
43691;BME280;29293;52.190;21.226;2023-08-17T16:15:58;100619.36;;;31.26;46.29
43691;BME280;29293;52.190;21.226;2023-08-17T16:31:05;100639.81;;;30.77;46.63
43691;BME280;29293;52.190;21.226;2023-08-17T16:46:14;100647.88;;;30.29;48.06
43691;BME280;29293;52.190;21.226;2023-08-17T17:01:25;100637.70;;;29.85;49.54
43691;BME280;29293;52.190;21.226;2023-08-17T17:16:40;100643.19;;;29.33;52.12
43691;BME280;29293;52.190;21.226;2023-08-17T17:31:48;100646.33;;;28.66;55.86
43691;BME280;29293;52.190;21.226;2023-08-17T17:46:54;100645.77;;;27.73;60.87
43691;BME280;29293;52.190;21.226;2023-08-17T18:02:01;100640.61;;;26.92;65.54
43691;BME280;29293;52.190;21.226;2023-08-17T18:17:08;100627.81;;;26.19;71.11
43691;BME280;29293;52.190;21.226;2023-08-17T18:32:15;100639.91;;;25.45;78.26
43691;BME280;29293;52.190;21.226;2023-08-17T18:47:22;100638.38;;;24.73;86.50
43691;BME280;29293;52.190;21.226;2023-08-17T19:02:28;100627.91;;;24.26;93.59
43691;BME280;29293;52.190;21.226;2023-08-17T19:17:35;100624.08;;;23.91;99.34
43691;BME280;29293;52.190;21.226;2023-08-17T19:32:42;100629.31;;;23.59;100.00
43691;BME280;29293;52.190;21.226;2023-08-17T19:47:49;100621.67;;;23.28;100.00
43691;BME280;29293;52.190;21.226;2023-08-17T20:02:56;100626.52;;;22.95;100.00
43691;BME280;29293;52.190;21.226;2023-08-17T20:18:03;100638.27;;;22.64;100.00
43691;BME280;29293;52.190;21.226;2023-08-17T20:33:10;100659.86;;;22.18;100.00
43691;BME280;29293;52.190;21.226;2023-08-17T20:48:17;100678.20;;;22.12;100.00
43691;BME280;29293;52.190;21.226;2023-08-17T21:03:24;100681.48;;;21.87;100.00
43691;BME280;29293;52.190;21.226;2023-08-17T21:18:30;100670.65;;;21.71;100.00
43691;BME280;29293;52.190;21.226;2023-08-17T21:33:37;100671.58;;;21.56;100.00
43691;BME280;29293;52.190;21.226;2023-08-17T21:48:59;100685.24;;;21.87;100.00
43691;BME280;29293;52.190;21.226;2023-08-17T22:04:06;100684.39;;;22.02;100.00
43691;BME280;29293;52.190;21.226;2023-08-17T22:19:13;100675.67;;;22.14;100.00
43691;BME280;29293;52.190;21.226;2023-08-17T22:34:19;100670.84;;;22.15;100.00
43691;BME280;29293;52.190;21.226;2023-08-17T22:49:26;100682.42;;;22.11;100.00
43691;BME280;29293;52.190;21.226;2023-08-17T23:04:33;100702.79;;;21.83;100.00
43691;BME280;29293;52.190;21.226;2023-08-17T23:19:39;100708.52;;;21.48;100.00
43691;BME280;29293;52.190;21.226;2023-08-17T23:34:46;100703.70;;;21.25;100.00
43691;BME280;29293;52.190;21.226;2023-08-17T23:49:53;100682.11;;;20.87;100.00
